createdAt,value
2022-10-26T00:01:21.388Z,12.04
2022-10-26T00:03:48.657Z,12.17
2022-10-26T00:06:22.425Z,12.27
2022-10-26T00:08:52.539Z,12.34
2022-10-26T00:11:20.190Z,12.30
2022-10-26T00:13:48.061Z,12.45
2022-10-26T00:16:33.258Z,12.51
2022-10-26T00:19:00.515Z,12.58
2022-10-26T00:21:28.495Z,12.59
2022-10-26T00:23:55.610Z,12.55
2022-10-26T00:26:24.844Z,12.27
2022-10-26T00:28:57.230Z,12.32
2022-10-26T00:31:25.158Z,12.34
2022-10-26T00:33:57.111Z,12.15
2022-10-26T00:36:25.966Z,12.37
2022-10-26T00:38:56.049Z,12.25
2022-10-26T00:41:28.751Z,12.15
2022-10-26T00:43:56.601Z,12.10
2022-10-26T00:46:37.881Z,11.88
2022-10-26T00:51:54.312Z,11.98
2022-10-26T00:54:21.781Z,11.96
2022-10-26T00:56:52.199Z,12.00
2022-10-26T00:59:21.711Z,11.67
2022-10-26T01:01:49.931Z,11.83
2022-10-26T01:04:18.406Z,11.91
2022-10-26T01:06:46.718Z,12.00
2022-10-26T01:09:13.891Z,11.99
2022-10-26T01:11:43.156Z,12.16
2022-10-26T01:14:12.767Z,12.32
2022-10-26T01:17:08.089Z,12.28
2022-10-26T01:20:38.442Z,12.36
2022-10-26T01:23:24.567Z,12.34
2022-10-26T01:26:07.035Z,12.33
2022-10-26T01:28:55.455Z,12.30
2022-10-26T01:31:33.102Z,12.20
2022-10-26T01:34:09.160Z,12.35
2022-10-26T01:36:55.458Z,12.15
2022-10-26T01:39:36.417Z,12.39
2022-10-26T01:42:05.641Z,12.12
2022-10-26T01:44:42.476Z,12.21
2022-10-26T01:47:15.644Z,12.10
2022-10-26T01:49:49.927Z,12.16
2022-10-26T01:52:19.678Z,12.23
2022-10-26T01:54:47.321Z,12.20
2022-10-26T01:57:20.228Z,12.34
2022-10-26T02:00:10.065Z,12.11
2022-10-26T02:03:17.249Z,12.13
2022-10-26T02:06:04.615Z,12.16
2022-10-26T02:09:02.796Z,12.25
2022-10-26T02:11:41.870Z,12.23
2022-10-26T02:14:17.777Z,11.98
2022-10-26T02:16:58.596Z,12.15
2022-10-26T02:19:50.661Z,12.07
2022-10-26T02:22:23.674Z,12.18
2022-10-26T02:24:54.786Z,12.22
2022-10-26T02:27:31.496Z,12.37
2022-10-26T02:30:02.244Z,12.43
2022-10-26T02:32:35.117Z,12.17
2022-10-26T02:35:05.361Z,12.36
2022-10-26T02:37:35.768Z,12.52
2022-10-26T02:40:09.183Z,12.32
2022-10-26T02:42:37.670Z,12.31
2022-10-26T02:45:11.222Z,12.44
2022-10-26T02:47:41.304Z,12.15
2022-10-26T02:50:09.004Z,12.30
2022-10-26T02:53:01.553Z,12.43
2022-10-26T02:55:36.924Z,12.17
2022-10-26T02:58:12.355Z,11.94
2022-10-26T03:00:39.895Z,12.23
2022-10-26T03:03:07.100Z,12.06
2022-10-26T03:05:36.318Z,12.03
2022-10-26T03:08:12.592Z,12.27
2022-10-26T03:10:46.318Z,12.36
2022-10-26T03:13:14.375Z,12.37
2022-10-26T03:15:41.594Z,12.40
2022-10-26T03:18:08.778Z,12.60
2022-10-26T03:20:36.031Z,12.39
2022-10-26T03:23:03.361Z,12.52
2022-10-26T03:25:30.639Z,12.44
2022-10-26T03:28:02.467Z,12.35
2022-10-26T03:30:33.222Z,12.38
2022-10-26T03:33:05.061Z,12.32
2022-10-26T03:35:32.626Z,12.33
2022-10-26T03:37:59.737Z,12.23
2022-10-26T03:40:29.355Z,12.42
2022-10-26T03:42:56.500Z,12.34
2022-10-26T03:45:23.656Z,12.52
2022-10-26T03:47:51.002Z,12.45
2022-10-26T03:50:21.951Z,12.32
2022-10-26T03:52:50.725Z,12.26
2022-10-26T03:55:20.659Z,12.18
2022-10-26T03:57:50.137Z,12.43
2022-10-26T04:00:18.130Z,12.33
2022-10-26T04:02:57.547Z,12.51
2022-10-26T04:05:27.299Z,12.35
2022-10-26T04:08:04.587Z,12.34
2022-10-26T04:10:32.440Z,12.43
2022-10-26T04:13:23.962Z,12.53
2022-10-26T04:15:51.538Z,12.59
2022-10-26T04:18:18.789Z,12.57
2022-10-26T04:20:56.851Z,12.62
2022-10-26T04:25:50.965Z,12.44
2022-10-26T04:28:19.509Z,12.58
2022-10-26T04:30:48.107Z,12.33
2022-10-26T04:33:15.208Z,12.52
2022-10-26T04:35:43.113Z,12.64
2022-10-26T04:38:10.780Z,12.65
2022-10-26T04:40:37.895Z,12.64
2022-10-26T04:43:07.266Z,12.61
2022-10-26T04:45:35.028Z,12.64
2022-10-26T04:48:06.032Z,12.33
2022-10-26T04:50:36.066Z,12.33
2022-10-26T04:53:04.689Z,12.48
2022-10-26T04:55:31.772Z,12.02
2022-10-26T04:58:01.812Z,11.98
2022-10-26T05:00:33.135Z,12.22
2022-10-26T05:03:02.823Z,12.33
2022-10-26T05:05:32.421Z,12.33
2022-10-26T05:08:04.520Z,12.17
2022-10-26T05:10:31.856Z,12.33
2022-10-26T05:13:02.302Z,12.51
2022-10-26T05:15:32.224Z,12.57
2022-10-26T05:18:03.436Z,12.43
2022-10-26T05:20:33.534Z,12.55
2022-10-26T05:23:04.136Z,12.31
2022-10-26T05:25:37.297Z,12.24
2022-10-26T05:28:13.387Z,12.25
2022-10-26T05:30:45.389Z,12.08
2022-10-26T05:33:13.993Z,12.29
2022-10-26T05:35:41.731Z,12.36
2022-10-26T05:38:17.692Z,12.55
2022-10-26T05:40:53.444Z,12.25
2022-10-26T05:43:25.189Z,11.76
2022-10-26T05:45:52.468Z,11.60
2022-10-26T05:48:23.032Z,11.71
2022-10-26T05:50:50.288Z,11.78
2022-10-26T05:53:17.590Z,11.48
2022-10-26T05:55:47.266Z,11.60
2022-10-26T05:58:15.712Z,11.42
2022-10-26T06:00:59.299Z,11.64
2022-10-26T06:03:52.400Z,11.61
2022-10-26T06:06:19.852Z,11.73
2022-10-26T06:08:47.396Z,11.93
2022-10-26T06:11:17.349Z,11.95
2022-10-26T06:13:44.896Z,11.90
2022-10-26T06:16:26.831Z,12.05
2022-10-26T06:19:42.349Z,12.00
2022-10-26T06:22:48.256Z,12.10
2022-10-26T06:25:52.810Z,12.00
2022-10-26T06:28:47.300Z,12.03
2022-10-26T06:31:17.711Z,12.28
2022-10-26T06:33:45.280Z,12.22
2022-10-26T06:36:27.708Z,12.21
2022-10-26T06:39:18.927Z,11.95
2022-10-26T06:41:46.478Z,11.56
2022-10-26T06:44:23.736Z,11.91
2022-10-26T06:47:37.805Z,11.44
2022-10-26T06:50:38.976Z,11.31
2022-10-26T06:56:13.432Z,11.58
2022-10-26T06:58:44.814Z,11.72
2022-10-26T07:01:12.867Z,11.56
2022-10-26T07:03:40.093Z,11.48
2022-10-26T07:06:07.498Z,11.93
2022-10-26T07:08:37.303Z,11.93
2022-10-26T07:11:04.870Z,11.61
2022-10-26T07:13:31.952Z,11.33
2022-10-26T07:15:59.004Z,11.35
2022-10-26T07:18:28.519Z,11.43
2022-10-26T07:21:07.234Z,11.44
2022-10-26T07:23:34.284Z,11.81
2022-10-26T07:26:01.405Z,11.73
2022-10-26T07:28:28.609Z,11.44
2022-10-26T07:30:58.256Z,11.77
2022-10-26T07:33:25.361Z,11.66
2022-10-26T07:35:54.233Z,11.64
2022-10-26T07:38:25.889Z,11.70
2022-10-26T07:40:54.405Z,11.05
2022-10-26T07:43:21.622Z,11.42
2022-10-26T07:45:51.897Z,11.29
2022-10-26T07:48:21.548Z,11.47
2022-10-26T07:50:51.023Z,11.51
2022-10-26T07:53:18.012Z,11.69
2022-10-26T07:55:57.197Z,11.93
2022-10-26T07:58:26.334Z,11.82
2022-10-26T08:00:54.565Z,12.40
2022-10-26T08:03:22.124Z,12.52
2022-10-26T08:05:55.895Z,12.64
2022-10-26T08:08:23.436Z,12.66
2022-10-26T08:10:55.068Z,12.61
2022-10-26T08:13:24.480Z,12.68
2022-10-26T08:16:00.139Z,12.60
2022-10-26T08:18:28.227Z,12.23
2022-10-26T08:21:01.814Z,12.52
2022-10-26T08:23:37.546Z,12.63
2022-10-26T08:26:05.146Z,12.77
2022-10-26T08:28:32.391Z,12.56
2022-10-26T08:30:59.527Z,12.75
2022-10-26T08:33:26.716Z,12.99
2022-10-26T08:36:06.513Z,12.44
2022-10-26T08:38:36.885Z,13.35
2022-10-26T08:41:10.644Z,13.50
2022-10-26T08:43:50.453Z,13.47
2022-10-26T08:46:35.137Z,13.61
2022-10-26T08:49:44.319Z,13.43
2022-10-26T08:52:18.029Z,13.50
2022-10-26T08:54:57.472Z,12.97
2022-10-26T08:57:39.752Z,13.48
2022-10-26T09:00:28.203Z,13.67
2022-10-26T09:02:55.410Z,14.05
2022-10-26T09:05:43.968Z,14.25
2022-10-26T09:08:56.789Z,13.82
2022-10-26T09:11:47.707Z,13.42
2022-10-26T09:15:04.733Z,13.34
2022-10-26T09:17:57.659Z,13.54
2022-10-26T09:20:48.696Z,13.54
2022-10-26T09:23:31.637Z,13.07
2022-10-26T09:26:05.868Z,13.08
2022-10-26T09:28:37.836Z,13.54
2022-10-26T09:31:05.856Z,13.12
2022-10-26T09:33:39.822Z,13.08
2022-10-26T09:36:22.273Z,13.28
2022-10-26T09:39:42.483Z,13.56
2022-10-26T09:42:24.672Z,13.54
2022-10-26T09:45:17.115Z,13.88
2022-10-26T09:47:52.942Z,13.91
2022-10-26T09:50:37.227Z,13.91
2022-10-26T09:53:04.730Z,13.78
2022-10-26T09:55:34.533Z,14.23
2022-10-26T09:58:06.448Z,14.03
2022-10-26T10:03:32.153Z,13.34
2022-10-26T10:06:27.085Z,12.97
2022-10-26T10:09:21.119Z,13.00
2022-10-26T10:11:56.656Z,13.05
2022-10-26T10:14:57.651Z,12.85
2022-10-26T10:17:25.932Z,12.98
2022-10-26T10:19:53.552Z,13.45
2022-10-26T10:22:25.787Z,13.37
2022-10-26T10:25:01.246Z,13.54
2022-10-26T10:27:33.590Z,13.51
2022-10-26T10:30:22.534Z,13.57
2022-10-26T10:33:11.392Z,13.68
2022-10-26T10:35:49.625Z,13.77
2022-10-26T10:38:21.236Z,14.09
2022-10-26T10:40:58.297Z,14.16
2022-10-26T10:43:26.696Z,14.12
2022-10-26T10:45:59.644Z,14.27
2022-10-26T10:48:29.456Z,14.47
2022-10-26T10:51:03.359Z,14.71
2022-10-26T10:53:45.719Z,14.81
2022-10-26T10:56:15.490Z,14.96
2022-10-26T10:59:11.055Z,14.50
2022-10-26T11:02:20.641Z,14.40
2022-10-26T11:05:33.414Z,14.65
2022-10-26T11:08:14.247Z,14.67
2022-10-26T11:10:53.528Z,14.60
2022-10-26T11:14:16.989Z,14.62
2022-10-26T11:16:59.270Z,14.70
2022-10-26T11:19:46.361Z,14.71
2022-10-26T11:22:24.222Z,14.90
2022-10-26T11:25:06.065Z,14.60
2022-10-26T11:28:11.118Z,14.85
2022-10-26T11:30:52.371Z,15.02
2022-10-26T11:33:40.150Z,15.06
2022-10-26T11:36:18.474Z,15.32
2022-10-26T11:39:02.753Z,15.41
2022-10-26T11:41:56.005Z,15.15
2022-10-26T11:44:38.684Z,15.48
2022-10-26T11:47:23.923Z,15.59
2022-10-26T11:50:21.878Z,15.59
2022-10-26T11:53:03.720Z,15.56
2022-10-26T11:55:31.815Z,15.25
2022-10-26T11:57:59.204Z,15.50
2022-10-26T12:00:27.096Z,15.28
2022-10-26T12:03:30.474Z,15.12
2022-10-26T12:05:57.582Z,15.58
2022-10-26T12:08:43.934Z,15.47
2022-10-26T12:11:58.590Z,15.52
2022-10-26T12:14:39.556Z,15.79
2022-10-26T12:17:28.358Z,15.40
2022-10-26T12:20:53.724Z,15.62
2022-10-26T12:23:33.919Z,16.08
2022-10-26T12:26:39.871Z,15.78
2022-10-26T12:29:06.797Z,15.93
2022-10-26T12:31:36.865Z,16.13
2022-10-26T12:34:22.245Z,16.59
2022-10-26T12:36:55.368Z,16.36
2022-10-26T12:39:32.902Z,16.37
2022-10-26T12:42:26.007Z,16.21
2022-10-26T12:44:53.521Z,16.01
2022-10-26T12:47:32.818Z,16.17
2022-10-26T12:50:09.426Z,15.86
2022-10-26T12:52:48.863Z,16.06
2022-10-26T12:55:36.603Z,16.13
2022-10-26T12:58:45.143Z,16.19
2022-10-26T13:01:24.261Z,16.24
2022-10-26T13:04:09.211Z,16.87
2022-10-26T13:06:48.027Z,16.83
2022-10-26T13:09:33.158Z,16.50
2022-10-26T13:12:03.861Z,16.74
2022-10-26T13:14:41.310Z,16.75
2022-10-26T13:17:28.784Z,17.03
2022-10-26T13:20:01.003Z,17.26
2022-10-26T13:22:31.429Z,16.76
2022-10-26T13:25:03.963Z,16.73
2022-10-26T13:27:36.468Z,16.32
2022-10-26T13:30:09.639Z,16.37
2022-10-26T13:33:02.845Z,16.63
2022-10-26T13:35:32.593Z,16.48
2022-10-26T13:38:07.479Z,16.85
2022-10-26T13:40:38.493Z,17.11
2022-10-26T13:43:19.729Z,17.16
2022-10-26T13:46:01.329Z,16.99
2022-10-26T13:48:41.865Z,16.91
2022-10-26T13:51:30.315Z,17.17
2022-10-26T13:54:03.351Z,16.80
2022-10-26T13:56:39.496Z,16.94
2022-10-26T13:59:13.869Z,16.91
2022-10-26T14:01:41.283Z,16.90
2022-10-26T14:04:28.821Z,17.10
2022-10-26T14:06:56.099Z,17.34
2022-10-26T14:09:25.798Z,17.66
2022-10-26T14:12:00.128Z,17.54
2022-10-26T14:14:34.992Z,17.84
2022-10-26T14:17:02.791Z,17.90
2022-10-26T14:19:36.471Z,18.00
2022-10-26T14:22:04.386Z,17.41
2022-10-26T14:24:48.256Z,16.93
2022-10-26T14:27:24.144Z,17.29
2022-10-26T14:30:17.129Z,16.71
2022-10-26T14:32:40.807Z,16.82
2022-10-26T14:35:13.704Z,16.75
2022-10-26T14:38:26.519Z,16.48
2022-10-26T14:40:56.291Z,16.36
2022-10-26T14:43:26.063Z,16.10
2022-10-26T14:45:57.430Z,15.99
2022-10-26T14:48:35.026Z,15.89
2022-10-26T14:51:06.049Z,16.18
2022-10-26T14:53:40.645Z,16.12
2022-10-26T14:56:41.009Z,16.12
2022-10-26T14:59:32.279Z,16.28
2022-10-26T15:02:11.378Z,15.50
2022-10-26T15:04:42.194Z,15.78
2022-10-26T15:07:15.400Z,15.82
2022-10-26T15:09:46.907Z,15.93
2022-10-26T15:12:36.972Z,16.06
2022-10-26T15:15:23.741Z,16.26
2022-10-26T15:17:57.809Z,16.18
2022-10-26T15:20:27.668Z,16.22
2022-10-26T15:23:02.873Z,16.09
2022-10-26T15:25:34.879Z,16.01
2022-10-26T15:28:31.162Z,15.96
2022-10-26T15:31:11.718Z,15.77
2022-10-26T15:34:04.857Z,15.56
2022-10-26T15:36:35.839Z,15.34
2022-10-26T15:39:02.966Z,15.24
2022-10-26T15:41:40.035Z,15.17
2022-10-26T15:44:20.461Z,15.10
2022-10-26T15:46:47.836Z,14.90
2022-10-26T15:49:20.802Z,14.68
2022-10-26T15:51:49.491Z,14.78
2022-10-26T15:54:16.718Z,14.67
2022-10-26T15:56:44.316Z,14.55
2022-10-26T15:59:18.594Z,14.45
2022-10-26T16:01:48.337Z,14.26
2022-10-26T16:04:15.993Z,14.12
2022-10-26T16:06:43.423Z,13.96
2022-10-26T16:09:17.918Z,14.07
2022-10-26T16:11:45.496Z,13.95
2022-10-26T16:14:13.150Z,13.56
2022-10-26T16:16:42.592Z,13.67
2022-10-26T16:19:30.455Z,13.65
2022-10-26T16:21:59.036Z,13.67
2022-10-26T16:24:30.663Z,13.42
2022-10-26T16:26:58.354Z,13.52
2022-10-26T16:29:25.471Z,13.41
2022-10-26T16:31:52.624Z,13.32
2022-10-26T16:34:19.777Z,13.39
2022-10-26T16:36:46.957Z,13.26
2022-10-26T16:39:14.295Z,13.27
2022-10-26T16:41:41.415Z,13.14
2022-10-26T16:44:08.630Z,13.13
2022-10-26T16:46:35.800Z,12.92
2022-10-26T16:49:02.886Z,12.85
2022-10-26T16:51:32.677Z,12.92
2022-10-26T16:54:00.114Z,12.88
2022-10-26T16:56:30.126Z,12.91
2022-10-26T16:58:57.780Z,12.78
2022-10-26T17:01:27.945Z,12.63
2022-10-26T17:03:55.252Z,12.72
2022-10-26T17:06:22.506Z,12.26
2022-10-26T17:08:49.928Z,12.58
2022-10-26T17:11:23.137Z,12.30
2022-10-26T17:13:54.954Z,12.32
2022-10-26T17:16:24.981Z,12.25
2022-10-26T17:18:54.065Z,12.38
2022-10-26T17:21:38.170Z,12.31
2022-10-26T17:24:06.874Z,12.31
2022-10-26T17:26:36.486Z,12.12
2022-10-26T17:29:04.151Z,12.14
2022-10-26T17:31:31.299Z,12.18
2022-10-26T17:33:58.801Z,11.92
2022-10-26T17:36:27.649Z,11.38
2022-10-26T17:38:58.484Z,11.56
2022-10-26T17:41:25.717Z,11.76
2022-10-26T17:43:53.938Z,11.79
2022-10-26T17:46:27.294Z,11.76
2022-10-26T17:48:59.538Z,11.83
2022-10-26T17:51:28.362Z,11.47
2022-10-26T17:53:59.134Z,11.75
2022-10-26T17:56:29.983Z,11.81
2022-10-26T17:59:03.889Z,11.67
2022-10-26T18:01:32.061Z,11.67
2022-10-26T18:03:59.638Z,11.69
2022-10-26T18:06:27.673Z,11.73
2022-10-26T18:08:59.394Z,11.47
2022-10-26T18:11:27.608Z,11.44
2022-10-26T18:14:00.954Z,11.48
2022-10-26T18:16:29.011Z,11.37
2022-10-26T18:19:01.706Z,11.47
2022-10-26T18:21:32.695Z,11.41
2022-10-26T18:24:00.359Z,11.03
2022-10-26T18:26:31.744Z,11.39
2022-10-26T18:29:01.005Z,11.25
2022-10-26T18:31:33.171Z,11.38
2022-10-26T18:34:02.399Z,11.37
2022-10-26T18:36:30.970Z,11.35
2022-10-26T18:39:00.667Z,11.38
2022-10-26T18:41:28.874Z,11.33
2022-10-26T18:43:59.974Z,11.32
2022-10-26T18:46:33.856Z,11.27
2022-10-26T18:49:01.227Z,11.25
2022-10-26T18:51:34.679Z,11.14
2022-10-26T18:54:02.297Z,11.14
2022-10-26T18:56:29.584Z,11.10
2022-10-26T18:59:05.893Z,11.17
2022-10-26T19:01:35.919Z,11.17
2022-10-26T19:04:07.482Z,11.02
2022-10-26T19:06:40.680Z,11.01
2022-10-26T19:09:10.195Z,11.02
2022-10-26T19:11:38.335Z,11.00
2022-10-26T19:14:07.035Z,10.92
2022-10-26T19:16:45.758Z,10.89
2022-10-26T19:19:15.316Z,10.95
2022-10-26T19:21:42.415Z,10.80
2022-10-26T19:24:21.519Z,10.89
2022-10-26T19:26:50.663Z,10.97
2022-10-26T19:29:21.772Z,11.01
2022-10-26T19:31:53.176Z,10.79
2022-10-26T19:34:22.714Z,10.69
2022-10-26T19:36:49.907Z,10.68
2022-10-26T19:39:18.238Z,10.70
2022-10-26T19:41:48.560Z,10.71
2022-10-26T19:44:16.572Z,10.60
2022-10-26T19:46:45.095Z,10.60
2022-10-26T19:49:13.140Z,10.71
2022-10-26T19:51:40.366Z,10.77
2022-10-26T19:54:07.731Z,10.76
2022-10-26T19:56:37.104Z,10.77
2022-10-26T19:59:05.630Z,10.86
2022-10-26T20:01:33.226Z,10.82
2022-10-26T20:04:02.595Z,10.79
2022-10-26T20:06:31.065Z,10.90
2022-10-26T20:08:58.874Z,10.93
2022-10-26T20:11:26.152Z,10.88
2022-10-26T20:13:55.584Z,10.91
2022-10-26T20:16:22.895Z,10.94
2022-10-26T20:18:49.993Z,10.98
2022-10-26T20:21:18.001Z,10.86
2022-10-26T20:23:46.869Z,10.95
2022-10-26T20:26:20.151Z,11.12
2022-10-26T20:28:51.980Z,10.75
2022-10-26T20:31:20.144Z,10.84
2022-10-26T20:34:00.754Z,10.85
2022-10-26T20:36:30.833Z,10.53
2022-10-26T20:39:01.283Z,10.29
2022-10-26T20:41:28.724Z,10.54
2022-10-26T20:43:58.051Z,10.62
2022-10-26T20:46:27.812Z,10.64
2022-10-26T20:48:55.321Z,10.65
2022-10-26T20:51:38.549Z,10.85
2022-10-26T20:54:26.077Z,11.08
2022-10-26T20:56:59.694Z,11.16
2022-10-26T20:59:50.970Z,11.18
2022-10-26T21:02:21.280Z,11.23
2022-10-26T21:04:48.502Z,11.35
2022-10-26T21:07:15.665Z,11.31
2022-10-26T21:09:42.897Z,11.41
2022-10-26T21:12:12.671Z,11.39
2022-10-26T21:14:41.036Z,11.47
2022-10-26T21:17:11.337Z,11.45
2022-10-26T21:19:38.466Z,11.54
2022-10-26T21:22:05.555Z,11.61
2022-10-26T21:24:32.912Z,11.49
2022-10-26T21:27:00.011Z,11.47
2022-10-26T21:29:27.179Z,11.15
2022-10-26T21:31:54.254Z,11.20
2022-10-26T21:34:21.361Z,11.04
2022-10-26T21:36:48.574Z,11.16
2022-10-26T21:39:15.617Z,10.89
2022-10-26T21:41:43.986Z,10.52
2022-10-26T21:44:24.655Z,10.70
2022-10-26T21:46:58.312Z,11.01
2022-10-26T21:49:25.405Z,11.18
2022-10-26T21:51:52.439Z,11.21
2022-10-26T21:54:19.572Z,11.07
2022-10-26T21:56:49.153Z,10.94
2022-10-26T21:59:18.339Z,11.06
2022-10-26T22:01:45.509Z,10.96
2022-10-26T22:04:12.809Z,11.12
2022-10-26T22:06:42.528Z,10.88
2022-10-26T22:09:12.119Z,11.14
2022-10-26T22:11:39.277Z,11.32
2022-10-26T22:14:06.572Z,11.40
2022-10-26T22:16:33.852Z,11.59
2022-10-26T22:19:07.546Z,11.70
2022-10-26T22:21:38.369Z,11.61
2022-10-26T22:24:06.467Z,11.66
2022-10-26T22:26:39.133Z,11.36
2022-10-26T22:29:10.179Z,11.67
2022-10-26T22:31:42.259Z,11.54
2022-10-26T22:34:16.170Z,11.43
2022-10-26T22:36:46.269Z,11.45
2022-10-26T22:39:13.392Z,11.49
2022-10-26T22:41:40.519Z,11.32
2022-10-26T22:44:07.676Z,11.18
2022-10-26T22:46:34.950Z,11.12
2022-10-26T22:49:03.149Z,11.15
2022-10-26T22:51:33.495Z,11.06
2022-10-26T22:54:05.294Z,11.00
2022-10-26T22:56:35.450Z,11.15
2022-10-26T22:59:02.829Z,11.23
2022-10-26T23:01:39.276Z,10.91
2022-10-26T23:04:07.997Z,11.14
2022-10-26T23:06:35.169Z,11.29
2022-10-26T23:09:02.424Z,11.23
2022-10-26T23:11:29.969Z,11.18
2022-10-26T23:14:00.830Z,11.14
2022-10-26T23:16:31.350Z,11.25
2022-10-26T23:18:59.858Z,11.53
2022-10-26T23:21:28.441Z,11.19
2022-10-26T23:23:56.632Z,11.34
2022-10-26T23:26:23.969Z,11.26
2022-10-26T23:28:53.737Z,10.99
2022-10-26T23:31:27.007Z,10.91
2022-10-26T23:33:56.441Z,11.10
2022-10-26T23:36:25.882Z,11.35
2022-10-26T23:38:55.263Z,11.28
2022-10-26T23:41:22.491Z,11.39
2022-10-26T23:43:51.909Z,11.44
2022-10-26T23:46:19.061Z,11.36
2022-10-26T23:48:46.316Z,11.40
2022-10-26T23:51:13.401Z,11.13
2022-10-26T23:53:40.634Z,11.21
2022-10-26T23:56:08.113Z,11.01
2022-10-26T23:58:37.665Z,11.11
